createdAt,value
2018-03-19T00:00:42.654Z,67.35
2018-03-19T00:03:10.105Z,67.38
2018-03-19T00:05:37.559Z,66.98
2018-03-19T00:08:05.010Z,67.74
2018-03-19T00:10:32.472Z,66.94
2018-03-19T00:12:59.918Z,67.01
2018-03-19T00:15:27.366Z,66.44
2018-03-19T00:17:54.829Z,66.54
2018-03-19T00:20:22.279Z,65.81
2018-03-19T00:22:49.724Z,66.43
2018-03-19T00:25:17.163Z,66.97
2018-03-19T00:27:44.607Z,66.43
2018-03-19T00:30:12.063Z,66.64
2018-03-19T00:32:39.521Z,67.11
2018-03-19T00:35:06.966Z,66.61
2018-03-19T00:37:34.473Z,68.01
2018-03-19T00:40:01.947Z,66.72
2018-03-19T00:42:29.404Z,66.24
2018-03-19T00:44:56.871Z,66.70
2018-03-19T00:47:24.323Z,66.73
2018-03-19T00:49:51.775Z,66.79
2018-03-19T00:52:19.262Z,66.30
2018-03-19T00:54:46.713Z,66.60
2018-03-19T00:57:14.158Z,66.27
2018-03-19T00:59:41.607Z,67.07
2018-03-19T01:02:09.065Z,67.15
2018-03-19T01:04:36.511Z,67.69
2018-03-19T01:07:03.967Z,66.84
2018-03-19T01:09:31.469Z,66.56
2018-03-19T01:11:58.914Z,65.64
2018-03-19T01:14:26.372Z,66.22
2018-03-19T01:16:53.914Z,66.58
2018-03-19T01:19:21.929Z,66.89
2018-03-19T01:21:49.369Z,66.44
2018-03-19T01:24:16.818Z,66.36
2018-03-19T01:26:44.263Z,66.83
2018-03-19T01:29:11.720Z,66.40
2018-03-19T01:31:39.170Z,66.23
2018-03-19T01:34:06.656Z,66.49
2018-03-19T01:36:34.166Z,66.67
2018-03-19T01:39:01.606Z,67.17
2018-03-19T01:41:29.057Z,67.21
2018-03-19T01:43:56.498Z,66.96
2018-03-19T01:46:23.939Z,66.85
2018-03-19T01:48:51.381Z,66.24
2018-03-19T01:51:18.833Z,66.11
2018-03-19T01:53:46.285Z,67.19
2018-03-19T01:56:13.737Z,67.11
2018-03-19T01:58:41.245Z,67.33
2018-03-19T02:01:08.722Z,66.56
2018-03-19T02:03:36.163Z,66.94
2018-03-19T02:06:03.617Z,66.35
2018-03-19T02:08:31.062Z,66.25
2018-03-19T02:10:58.535Z,66.41
2018-03-19T02:13:26.014Z,66.58
2018-03-19T02:15:53.466Z,66.00
2018-03-19T02:18:20.935Z,65.94
2018-03-19T02:20:49.049Z,66.51
2018-03-19T02:23:16.488Z,66.99
2018-03-19T02:25:43.921Z,67.57
2018-03-19T02:28:11.374Z,66.92
2018-03-19T02:30:38.810Z,67.19
2018-03-19T02:33:06.271Z,66.59
2018-03-19T02:35:33.718Z,66.69
2018-03-19T02:38:01.175Z,67.23
2018-03-19T02:40:28.622Z,67.07
2018-03-19T02:42:56.094Z,66.97
2018-03-19T02:45:23.582Z,66.98
2018-03-19T02:47:51.027Z,66.87
2018-03-19T02:50:18.488Z,66.49
2018-03-19T02:52:45.964Z,66.95
2018-03-19T02:55:13.487Z,66.74
2018-03-19T02:57:40.962Z,66.86
2018-03-19T03:00:08.415Z,66.59
2018-03-19T03:02:35.912Z,66.44
2018-03-19T03:05:03.381Z,66.73
2018-03-19T03:07:30.842Z,66.60
2018-03-19T03:09:58.292Z,66.68
2018-03-19T03:12:25.742Z,65.91
2018-03-19T03:17:31.633Z,67.09
2018-03-19T03:19:59.068Z,66.61
2018-03-19T03:22:26.510Z,66.89
2018-03-19T03:24:53.957Z,67.13
2018-03-19T03:27:21.403Z,66.90
2018-03-19T03:29:48.866Z,65.86
2018-03-19T03:32:16.356Z,65.97
2018-03-19T03:34:43.809Z,65.83
2018-03-19T03:37:11.253Z,66.96
2018-03-19T03:39:38.711Z,66.58
2018-03-19T03:42:06.174Z,66.72
2018-03-19T03:44:33.623Z,66.34
2018-03-19T03:47:01.081Z,66.97
2018-03-19T03:49:28.546Z,65.53
2018-03-19T03:51:55.996Z,66.15
2018-03-19T03:54:23.436Z,65.55
2018-03-19T03:56:50.903Z,65.82
2018-03-19T03:59:18.360Z,65.79
2018-03-19T04:01:45.809Z,65.53
2018-03-19T04:04:13.365Z,65.67
2018-03-19T04:06:40.834Z,66.18
2018-03-19T04:09:08.318Z,65.84
2018-03-19T04:11:35.765Z,65.91
2018-03-19T04:14:03.225Z,65.99
2018-03-19T04:16:30.672Z,66.38
2018-03-19T04:18:58.121Z,66.64
2018-03-19T04:21:25.588Z,65.87
2018-03-19T04:23:53.034Z,66.86
2018-03-19T04:26:20.474Z,65.28
2018-03-19T04:28:47.922Z,65.97
2018-03-19T04:31:15.367Z,65.95
2018-03-19T04:33:42.859Z,65.83
2018-03-19T04:36:10.318Z,66.65
2018-03-19T04:38:37.765Z,66.45
2018-03-19T04:41:05.261Z,66.38
2018-03-19T04:43:32.822Z,66.26
2018-03-19T04:46:00.272Z,66.00
2018-03-19T04:48:27.719Z,66.08
2018-03-19T04:50:55.212Z,66.71
2018-03-19T04:53:22.678Z,66.47
2018-03-19T04:55:50.133Z,66.30
2018-03-19T04:58:17.571Z,66.60
2018-03-19T05:00:45.034Z,66.56
2018-03-19T05:03:12.474Z,66.18
2018-03-19T05:05:39.958Z,66.65
2018-03-19T05:08:07.426Z,66.98
2018-03-19T05:10:34.907Z,67.36
2018-03-19T05:13:02.362Z,66.56
2018-03-19T05:15:29.808Z,67.32
2018-03-19T05:17:57.258Z,67.28
2018-03-19T05:20:24.948Z,66.63
2018-03-19T05:22:52.398Z,66.97
2018-03-19T05:25:19.939Z,66.38
2018-03-19T05:27:47.427Z,67.24
2018-03-19T05:30:14.868Z,67.76
2018-03-19T05:32:42.316Z,67.29
2018-03-19T05:35:09.801Z,67.49
2018-03-19T05:37:37.247Z,67.72
2018-03-19T05:40:04.707Z,67.21
2018-03-19T05:42:32.150Z,66.88
2018-03-19T05:44:59.610Z,67.62
2018-03-19T05:47:27.143Z,67.30
2018-03-19T05:49:54.594Z,67.15
2018-03-19T05:52:22.073Z,67.41
2018-03-19T05:54:49.530Z,66.93
2018-03-19T05:57:17.005Z,67.24
2018-03-19T05:59:44.512Z,67.00
2018-03-19T06:02:11.958Z,66.35
2018-03-19T06:04:39.444Z,66.28
2018-03-19T06:07:06.899Z,65.84
2018-03-19T06:09:34.354Z,65.53
2018-03-19T06:12:01.816Z,65.69
2018-03-19T06:14:29.259Z,65.68
2018-03-19T06:16:56.715Z,65.51
2018-03-19T06:19:24.154Z,65.66
2018-03-19T06:21:51.630Z,66.17
2018-03-19T06:24:19.135Z,65.58
2018-03-19T06:26:46.588Z,64.30
2018-03-19T06:29:14.140Z,64.15
2018-03-19T06:31:41.575Z,64.52
2018-03-19T06:34:09.082Z,64.84
2018-03-19T06:36:36.514Z,64.48
2018-03-19T06:39:04.025Z,64.08
2018-03-19T06:41:31.473Z,64.03
2018-03-19T06:43:58.922Z,63.97
2018-03-19T06:46:26.370Z,63.14
2018-03-19T06:48:53.811Z,62.85
2018-03-19T06:51:21.308Z,62.84
2018-03-19T06:53:48.760Z,62.91
2018-03-19T06:56:16.217Z,62.64
2018-03-19T06:58:43.666Z,61.62
2018-03-19T07:01:11.105Z,62.15
2018-03-19T07:03:38.550Z,61.88
2018-03-19T07:06:05.996Z,62.29
2018-03-19T07:08:33.447Z,61.04
2018-03-19T07:11:00.892Z,61.12
2018-03-19T07:13:28.362Z,60.69
2018-03-19T07:15:55.814Z,60.41
2018-03-19T07:18:23.263Z,60.19
2018-03-19T07:20:50.710Z,60.06
2018-03-19T07:23:18.145Z,60.53
2018-03-19T07:25:45.614Z,59.98
2018-03-19T07:28:13.075Z,60.42
2018-03-19T07:30:40.526Z,60.30
2018-03-19T07:33:08.006Z,59.71
2018-03-19T07:35:35.446Z,59.27
2018-03-19T07:38:02.893Z,59.47
2018-03-19T07:40:30.340Z,58.50
2018-03-19T07:42:57.810Z,58.60
2018-03-19T07:45:25.259Z,57.97
2018-03-19T07:47:52.710Z,58.59
2018-03-19T07:50:20.176Z,57.85
2018-03-19T07:52:47.639Z,58.46
2018-03-19T07:55:15.100Z,57.42
2018-03-19T07:57:42.556Z,56.91
2018-03-19T08:00:10.011Z,57.01
2018-03-19T08:02:37.449Z,56.68
2018-03-19T08:05:04.914Z,55.47
2018-03-19T08:07:32.438Z,55.44
2018-03-19T08:09:59.940Z,54.47
2018-03-19T08:12:27.377Z,53.85
2018-03-19T08:14:54.818Z,54.58
2018-03-19T08:17:22.335Z,54.15
2018-03-19T08:19:49.840Z,53.79
2018-03-19T08:22:17.308Z,53.87
2018-03-19T08:24:44.759Z,53.02
2018-03-19T08:27:12.201Z,51.78
2018-03-19T08:29:39.652Z,52.95
2018-03-19T08:32:07.101Z,50.73
2018-03-19T08:34:34.549Z,51.12
2018-03-19T08:37:02.004Z,50.36
2018-03-19T08:39:29.446Z,50.62
2018-03-19T08:41:56.902Z,50.27
2018-03-19T08:44:24.348Z,49.38
2018-03-19T08:46:51.822Z,48.30
2018-03-19T08:49:19.274Z,48.84
2018-03-19T08:51:46.744Z,48.49
2018-03-19T08:54:14.203Z,48.41
2018-03-19T08:56:41.655Z,48.44
2018-03-19T08:59:09.195Z,47.76
2018-03-19T09:01:36.632Z,47.40
2018-03-19T09:04:04.086Z,48.83
2018-03-19T09:06:31.545Z,48.29
2018-03-19T09:08:58.996Z,48.96
2018-03-19T09:11:26.446Z,47.90
2018-03-19T09:13:54.066Z,48.63
2018-03-19T09:16:21.510Z,47.09
2018-03-19T09:18:48.963Z,48.04
2018-03-19T09:21:16.417Z,48.13
2018-03-19T09:23:43.876Z,47.11
2018-03-19T09:26:11.336Z,47.21
2018-03-19T09:28:38.793Z,47.78
2018-03-19T09:31:06.330Z,47.79
2018-03-19T09:33:33.733Z,47.40
2018-03-19T09:36:01.190Z,47.49
2018-03-19T09:38:28.641Z,46.44
2018-03-19T09:40:56.081Z,46.69
2018-03-19T09:43:23.539Z,46.60
2018-03-19T09:45:50.982Z,46.75
2018-03-19T09:48:18.454Z,47.93
2018-03-19T09:50:45.904Z,48.09
2018-03-19T09:53:13.354Z,47.65
2018-03-19T09:55:40.825Z,48.77
2018-03-19T09:58:08.272Z,48.84
2018-03-19T10:00:35.731Z,48.64
2018-03-19T10:03:03.199Z,47.94
2018-03-19T10:05:30.641Z,48.85
2018-03-19T10:07:58.951Z,47.96
2018-03-19T10:10:26.414Z,47.93
2018-03-19T10:12:53.866Z,47.25
2018-03-19T10:15:21.317Z,46.70
2018-03-19T10:17:48.789Z,46.00
2018-03-19T10:20:16.232Z,45.94
2018-03-19T10:22:43.687Z,46.02
2018-03-19T10:25:11.155Z,44.77
2018-03-19T10:27:38.606Z,44.80
2018-03-19T10:30:06.066Z,46.13
2018-03-19T10:32:33.574Z,45.23
2018-03-19T10:35:01.025Z,44.67
2018-03-19T10:37:28.484Z,43.39
2018-03-19T10:39:55.987Z,43.06
2018-03-19T10:42:23.405Z,42.90
2018-03-19T10:44:50.873Z,42.86
2018-03-19T10:47:20.470Z,42.21
2018-03-19T10:49:47.945Z,43.13
2018-03-19T10:52:15.390Z,42.23
2018-03-19T10:54:42.866Z,43.65
2018-03-19T10:57:10.323Z,42.92
2018-03-19T10:59:37.781Z,40.83
2018-03-19T11:02:10.899Z,41.00
2018-03-19T11:04:38.370Z,42.16
2018-03-19T11:07:11.442Z,40.63
2018-03-19T11:09:44.456Z,40.20
2018-03-19T11:12:12.026Z,39.96
2018-03-19T11:14:39.408Z,40.54
2018-03-19T11:17:06.910Z,39.54
2018-03-19T11:19:34.327Z,39.79
2018-03-19T11:22:01.816Z,39.98
2018-03-19T11:24:29.262Z,39.34
2018-03-19T11:26:56.713Z,38.20
2018-03-19T11:29:24.173Z,39.38
2018-03-19T11:31:51.618Z,39.33
2018-03-19T11:34:19.093Z,40.28
2018-03-19T11:36:46.536Z,38.93
2018-03-19T11:39:14.001Z,37.43
2018-03-19T11:41:41.460Z,38.30
2018-03-19T11:44:08.894Z,37.87
2018-03-19T11:46:36.345Z,37.39
2018-03-19T11:49:03.796Z,38.83
2018-03-19T11:51:31.252Z,38.33
2018-03-19T11:53:58.690Z,39.97
2018-03-19T11:56:26.136Z,39.47
2018-03-19T11:58:53.586Z,39.28
2018-03-19T12:01:21.041Z,39.48
2018-03-19T12:03:48.484Z,41.29
2018-03-19T12:06:15.945Z,41.52
2018-03-19T12:08:43.386Z,41.45
2018-03-19T12:11:10.867Z,42.16
2018-03-19T12:13:38.356Z,41.88
2018-03-19T12:16:05.821Z,40.63
2018-03-19T12:18:33.283Z,40.57
2018-03-19T12:21:00.736Z,40.56
2018-03-19T12:23:28.179Z,41.01
2018-03-19T12:25:55.650Z,40.94
2018-03-19T12:28:23.147Z,40.86
2018-03-19T12:30:50.630Z,38.82
2018-03-19T12:33:18.088Z,38.73
2018-03-19T12:35:45.569Z,38.12
2018-03-19T12:38:13.112Z,38.53
2018-03-19T12:40:40.597Z,37.97
2018-03-19T12:43:08.177Z,35.55
2018-03-19T12:45:35.650Z,35.47
2018-03-19T12:48:03.083Z,33.49
2018-03-19T12:50:30.529Z,32.40
2018-03-19T12:52:57.999Z,35.92
2018-03-19T12:55:25.455Z,36.33
2018-03-19T12:57:52.968Z,35.68
2018-03-19T13:00:20.408Z,37.16
2018-03-19T13:02:47.863Z,37.06
2018-03-19T13:05:15.304Z,36.17
2018-03-19T13:07:42.764Z,36.03
2018-03-19T13:10:10.238Z,39.41
2018-03-19T13:12:37.724Z,39.50
2018-03-19T13:15:05.194Z,38.53
2018-03-19T13:17:32.628Z,39.50
2018-03-19T13:20:00.089Z,39.35
2018-03-19T13:22:27.985Z,41.27
2018-03-19T13:24:55.583Z,41.40
2018-03-19T13:27:23.038Z,42.91
2018-03-19T13:29:50.516Z,41.16
2018-03-19T13:32:18.019Z,42.54
2018-03-19T13:34:45.471Z,42.12
2018-03-19T13:37:12.932Z,43.09
2018-03-19T13:39:40.386Z,42.77
2018-03-19T13:42:08.016Z,42.79
2018-03-19T13:44:35.469Z,43.84
2018-03-19T13:47:02.940Z,44.57
2018-03-19T13:49:30.377Z,44.64
2018-03-19T13:51:57.913Z,44.45
2018-03-19T13:54:25.438Z,43.90
2018-03-19T13:56:52.879Z,44.75
2018-03-19T13:59:20.377Z,45.87
2018-03-19T14:01:47.844Z,46.36
2018-03-19T14:04:15.308Z,47.13
2018-03-19T14:06:42.748Z,47.84
2018-03-19T14:09:10.196Z,49.16
2018-03-19T14:11:37.917Z,49.13
2018-03-19T14:14:05.366Z,49.37
2018-03-19T14:16:32.852Z,48.86
2018-03-19T14:19:00.333Z,48.86
2018-03-19T14:21:27.794Z,49.53
2018-03-19T14:23:55.242Z,50.32
2018-03-19T14:26:22.718Z,49.62
2018-03-19T14:28:50.213Z,50.51
2018-03-19T14:31:17.639Z,50.41
2018-03-19T14:33:45.103Z,50.00
2018-03-19T14:36:12.542Z,50.48
2018-03-19T14:38:39.994Z,51.05
2018-03-19T14:41:07.461Z,51.11
2018-03-19T14:43:34.937Z,52.21
2018-03-19T14:46:02.397Z,51.89
2018-03-19T14:48:29.861Z,51.47
2018-03-19T14:50:57.336Z,52.05
2018-03-19T14:53:24.811Z,51.98
2018-03-19T14:55:52.263Z,51.48
2018-03-19T14:58:19.783Z,50.42
2018-03-19T15:00:47.282Z,50.85
2018-03-19T15:03:14.749Z,51.55
2018-03-19T15:05:42.189Z,51.04
2018-03-19T15:08:09.641Z,51.12
2018-03-19T15:10:37.113Z,51.87
2018-03-19T15:13:04.559Z,50.71
2018-03-19T15:15:32.043Z,51.02
2018-03-19T15:17:59.500Z,51.81
2018-03-19T15:20:26.930Z,51.86
2018-03-19T15:22:54.383Z,52.87
2018-03-19T15:25:21.842Z,52.45
2018-03-19T15:27:49.338Z,51.80
2018-03-19T15:30:16.787Z,51.83
2018-03-19T15:32:44.801Z,52.32
2018-03-19T15:38:33.346Z,52.92
2018-03-19T15:41:01.621Z,52.09
2018-03-19T15:43:30.310Z,52.94
2018-03-19T15:45:57.759Z,52.88
2018-03-19T15:51:04.488Z,53.04
2018-03-19T15:56:18.862Z,52.50
2018-03-19T15:58:46.326Z,52.91
2018-03-19T16:01:13.790Z,52.62
2018-03-19T16:03:41.230Z,52.18
2018-03-19T16:06:08.675Z,52.46
2018-03-19T16:08:36.103Z,52.94
2018-03-19T16:11:03.539Z,53.21
2018-03-19T16:13:30.973Z,53.83
2018-03-19T16:15:58.414Z,53.10
2018-03-19T16:18:25.868Z,52.79
2018-03-19T16:20:53.305Z,53.27
2018-03-19T16:23:20.790Z,52.49
2018-03-19T16:25:50.653Z,52.87
2018-03-19T16:28:18.157Z,52.16
2018-03-19T16:30:45.607Z,52.28
2018-03-19T16:33:13.284Z,52.62
2018-03-19T16:35:46.475Z,52.92
2018-03-19T16:38:15.276Z,53.30
2018-03-19T16:40:42.936Z,53.82
2018-03-19T16:43:10.418Z,53.86
2018-03-19T16:45:37.915Z,52.98
2018-03-19T16:48:05.894Z,53.06
2018-03-19T16:50:33.572Z,53.10
2018-03-19T16:53:01.129Z,52.52
2018-03-19T16:55:28.602Z,53.70
2018-03-19T16:57:56.099Z,53.84
2018-03-19T17:00:23.607Z,54.33
2018-03-19T17:02:51.068Z,53.92
2018-03-19T17:05:19.326Z,54.35
2018-03-19T17:07:50.106Z,54.58
2018-03-19T17:10:19.123Z,54.23
2018-03-19T17:12:48.964Z,55.50
2018-03-19T17:15:16.539Z,55.52
2018-03-19T17:17:44.066Z,55.22
2018-03-19T17:20:11.518Z,56.46
2018-03-19T17:22:39.049Z,56.28
2018-03-19T17:25:06.578Z,55.99
2018-03-19T17:27:34.273Z,56.04
2018-03-19T17:30:01.910Z,55.77
2018-03-19T17:32:29.670Z,55.84
2018-03-19T17:34:57.114Z,55.45
2018-03-19T17:37:24.564Z,55.57
2018-03-19T17:39:52.117Z,56.41
2018-03-19T17:42:19.626Z,56.39
2018-03-19T17:44:47.077Z,55.64
2018-03-19T17:47:15.523Z,56.31
2018-03-19T17:49:42.965Z,56.58
2018-03-19T17:52:10.621Z,56.07
2018-03-19T17:54:38.108Z,55.66
2018-03-19T17:57:05.560Z,56.09
2018-03-19T17:59:34.078Z,56.13
2018-03-19T18:02:01.522Z,55.90
2018-03-19T18:04:28.978Z,55.04
2018-03-19T18:06:56.580Z,55.72
2018-03-19T18:09:24.111Z,56.07
2018-03-19T18:11:51.552Z,55.94
2018-03-19T18:14:22.150Z,55.72
2018-03-19T18:16:49.843Z,55.59
2018-03-19T18:19:17.393Z,55.57
2018-03-19T18:21:45.494Z,55.48
2018-03-19T18:24:13.012Z,55.23
2018-03-19T18:26:40.484Z,55.32
2018-03-19T18:29:08.040Z,54.14
2018-03-19T18:31:35.585Z,55.12
2018-03-19T18:34:03.102Z,55.52
2018-03-19T18:36:30.645Z,56.65
2018-03-19T18:38:58.148Z,55.79
2018-03-19T18:41:25.630Z,55.72
2018-03-19T18:43:53.134Z,55.54
2018-03-19T18:46:20.609Z,55.63
2018-03-19T18:48:48.324Z,55.91
2018-03-19T18:51:15.798Z,55.58
2018-03-19T18:53:43.259Z,56.53
2018-03-19T18:56:10.912Z,56.45
2018-03-19T18:58:38.408Z,56.28
2018-03-19T19:01:06.074Z,55.74
2018-03-19T19:03:34.808Z,55.54
2018-03-19T19:06:02.496Z,55.74
2018-03-19T19:08:30.016Z,56.08
2018-03-19T19:10:57.717Z,55.89
2018-03-19T19:13:25.187Z,56.18
2018-03-19T19:15:54.505Z,56.45
2018-03-19T19:18:22.576Z,55.86
2018-03-19T19:20:50.105Z,56.36
2018-03-19T19:23:17.649Z,57.00
2018-03-19T19:25:45.397Z,56.80
2018-03-19T19:28:12.872Z,55.83
2018-03-19T19:30:40.336Z,56.62
2018-03-19T19:33:07.826Z,56.59
2018-03-19T19:35:35.309Z,57.46
2018-03-19T19:38:02.769Z,56.16
2018-03-19T19:40:33.391Z,56.73
2018-03-19T19:43:00.853Z,57.10
2018-03-19T19:45:28.354Z,57.05
2018-03-19T19:47:55.847Z,57.15
2018-03-19T19:50:23.404Z,56.47
2018-03-19T19:52:50.915Z,56.88
2018-03-19T19:55:18.362Z,56.83
2018-03-19T19:57:45.823Z,56.60
2018-03-19T20:00:13.274Z,56.58
2018-03-19T20:02:40.759Z,57.18
2018-03-19T20:05:08.215Z,56.72
2018-03-19T20:07:35.678Z,57.13
2018-03-19T20:10:03.149Z,57.37
2018-03-19T20:12:30.614Z,55.92
2018-03-19T20:14:59.508Z,56.58
2018-03-19T20:17:27.076Z,55.48
2018-03-19T20:19:54.596Z,55.83
2018-03-19T20:22:22.244Z,56.49
2018-03-19T20:24:49.722Z,55.43
2018-03-19T20:27:17.224Z,55.77
2018-03-19T20:29:44.689Z,56.02
2018-03-19T20:32:12.259Z,55.60
2018-03-19T20:34:39.764Z,55.56
2018-03-19T20:37:07.228Z,55.75
2018-03-19T20:39:34.689Z,55.82
2018-03-19T20:42:02.301Z,56.38
2018-03-19T20:44:29.766Z,56.66
2018-03-19T20:46:57.260Z,57.43
2018-03-19T20:49:25.030Z,58.08
2018-03-19T20:51:52.885Z,57.62
2018-03-19T20:54:20.376Z,57.47
2018-03-19T20:56:47.864Z,56.85
2018-03-19T20:59:15.400Z,56.47
2018-03-19T21:01:42.844Z,56.55
2018-03-19T21:04:10.346Z,57.20
2018-03-19T21:06:37.907Z,56.62
2018-03-19T21:09:05.395Z,57.02
2018-03-19T21:11:32.884Z,57.87
2018-03-19T21:14:00.378Z,58.45
2018-03-19T21:16:31.049Z,58.08
2018-03-19T21:18:58.674Z,56.86
2018-03-19T21:21:26.585Z,56.65
2018-03-19T21:23:54.052Z,55.75
2018-03-19T21:26:21.576Z,56.60
2018-03-19T21:28:49.182Z,56.10
2018-03-19T21:31:16.626Z,57.75
2018-03-19T21:33:44.104Z,57.42
2018-03-19T21:36:11.600Z,57.77
2018-03-19T21:38:39.150Z,58.41
2018-03-19T21:41:06.723Z,57.05
2018-03-19T21:43:34.190Z,57.08
2018-03-19T21:46:01.654Z,56.86
2018-03-19T21:48:29.110Z,56.67
2018-03-19T21:50:56.558Z,56.58
2018-03-19T21:53:24.018Z,56.89
2018-03-19T21:55:51.619Z,57.84
2018-03-19T21:58:19.101Z,58.32
2018-03-19T22:00:46.692Z,58.06
2018-03-19T22:03:14.144Z,57.57
2018-03-19T22:05:41.606Z,58.01
2018-03-19T22:08:09.061Z,58.37
2018-03-19T22:10:36.511Z,58.38
2018-03-19T22:13:03.966Z,58.69
2018-03-19T22:15:31.418Z,58.91
2018-03-19T22:17:58.905Z,59.00
2018-03-19T22:20:26.370Z,59.15
2018-03-19T22:22:53.847Z,59.41
2018-03-19T22:25:21.287Z,59.35
2018-03-19T22:27:48.765Z,60.31
2018-03-19T22:30:16.226Z,59.96
2018-03-19T22:32:43.671Z,60.41
2018-03-19T22:35:11.178Z,59.48
2018-03-19T22:37:38.626Z,59.01
2018-03-19T22:40:06.066Z,60.81
2018-03-19T22:42:33.515Z,59.96
2018-03-19T22:45:01.251Z,59.61
2018-03-19T22:47:28.711Z,59.52
2018-03-19T22:49:56.189Z,59.09
2018-03-19T22:52:23.634Z,58.96
2018-03-19T22:54:51.130Z,58.37
2018-03-19T22:57:18.570Z,58.45
2018-03-19T22:59:46.020Z,59.11
2018-03-19T23:02:13.501Z,59.68
2018-03-19T23:07:43.201Z,59.13
2018-03-19T23:10:10.644Z,59.07
2018-03-19T23:12:38.104Z,59.13
2018-03-19T23:15:05.558Z,60.03
2018-03-19T23:17:33.013Z,59.49
2018-03-19T23:20:00.465Z,59.80
2018-03-19T23:22:28.161Z,59.92
2018-03-19T23:24:55.996Z,59.91
2018-03-19T23:27:23.462Z,59.64
2018-03-19T23:29:50.949Z,59.72
2018-03-19T23:32:20.906Z,59.50
2018-03-19T23:34:48.381Z,59.93
2018-03-19T23:37:15.825Z,59.60
2018-03-19T23:39:43.283Z,59.71
2018-03-19T23:42:10.733Z,59.93
2018-03-19T23:44:38.190Z,60.18
2018-03-19T23:47:05.675Z,60.57
2018-03-19T23:49:33.154Z,60.85
2018-03-19T23:52:00.610Z,61.40
2018-03-19T23:54:29.105Z,61.44
2018-03-19T23:56:57.246Z,61.95
2018-03-19T23:59:24.703Z,62.30
